sensor_id;sensor_type;location;lat;lon;timestamp;temperature;humidity
45044;DHT22;30784;48.490;9.688;2024-01-11T00:00:41;-0.90;53.70
45044;DHT22;30784;48.490;9.688;2024-01-11T00:03:07;-0.90;53.80
45044;DHT22;30784;48.490;9.688;2024-01-11T00:05:32;-1.00;53.80
45044;DHT22;30784;48.490;9.688;2024-01-11T00:07:58;-1.00;53.80
45044;DHT22;30784;48.490;9.688;2024-01-11T00:10:23;-0.90;53.90
45044;DHT22;30784;48.490;9.688;2024-01-11T00:12:49;-1.00;53.80
45044;DHT22;30784;48.490;9.688;2024-01-11T00:15:15;-1.00;53.80
45044;DHT22;30784;48.490;9.688;2024-01-11T00:17:40;-1.00;53.70
45044;DHT22;30784;48.490;9.688;2024-01-11T00:20:06;-1.00;53.70
45044;DHT22;30784;48.490;9.688;2024-01-11T00:22:32;-1.00;53.80
45044;DHT22;30784;48.490;9.688;2024-01-11T00:24:58;-1.00;53.60
45044;DHT22;30784;48.490;9.688;2024-01-11T00:27:23;-1.00;53.60
45044;DHT22;30784;48.490;9.688;2024-01-11T00:29:49;-1.00;53.60
45044;DHT22;30784;48.490;9.688;2024-01-11T00:32:14;-1.10;53.60
45044;DHT22;30784;48.490;9.688;2024-01-11T00:34:40;-1.00;53.60
45044;DHT22;30784;48.490;9.688;2024-01-11T00:37:05;-1.10;53.50
45044;DHT22;30784;48.490;9.688;2024-01-11T00:39:31;-1.10;53.60
45044;DHT22;30784;48.490;9.688;2024-01-11T00:41:56;-1.10;53.60
45044;DHT22;30784;48.490;9.688;2024-01-11T00:44:22;-1.10;53.60
45044;DHT22;30784;48.490;9.688;2024-01-11T00:46:48;-1.20;53.70
45044;DHT22;30784;48.490;9.688;2024-01-11T00:49:13;-1.20;53.70
45044;DHT22;30784;48.490;9.688;2024-01-11T00:51:39;-1.20;53.80
45044;DHT22;30784;48.490;9.688;2024-01-11T00:54:04;-1.20;53.80
45044;DHT22;30784;48.490;9.688;2024-01-11T00:56:30;-1.20;53.90
45044;DHT22;30784;48.490;9.688;2024-01-11T00:58:56;-1.20;53.90
45044;DHT22;30784;48.490;9.688;2024-01-11T01:01:21;-1.20;53.80
45044;DHT22;30784;48.490;9.688;2024-01-11T01:03:47;-1.20;53.80
45044;DHT22;30784;48.490;9.688;2024-01-11T01:06:12;-1.20;53.80
45044;DHT22;30784;48.490;9.688;2024-01-11T01:08:38;-1.30;53.70
45044;DHT22;30784;48.490;9.688;2024-01-11T01:11:03;-1.20;53.80
45044;DHT22;30784;48.490;9.688;2024-01-11T01:13:29;-1.30;53.80
45044;DHT22;30784;48.490;9.688;2024-01-11T01:15:55;-1.30;53.80
45044;DHT22;30784;48.490;9.688;2024-01-11T01:18:20;-1.30;53.80
45044;DHT22;30784;48.490;9.688;2024-01-11T01:20:46;-1.30;53.80
45044;DHT22;30784;48.490;9.688;2024-01-11T01:23:11;-1.30;53.90
45044;DHT22;30784;48.490;9.688;2024-01-11T01:25:37;-1.30;53.90
45044;DHT22;30784;48.490;9.688;2024-01-11T01:28:02;-1.30;53.90
45044;DHT22;30784;48.490;9.688;2024-01-11T01:30:28;-1.30;53.90
45044;DHT22;30784;48.490;9.688;2024-01-11T01:32:54;-1.30;54.00
45044;DHT22;30784;48.490;9.688;2024-01-11T01:35:19;-1.30;54.00
45044;DHT22;30784;48.490;9.688;2024-01-11T01:37:45;-1.30;54.00
45044;DHT22;30784;48.490;9.688;2024-01-11T01:40:11;-1.30;54.00
45044;DHT22;30784;48.490;9.688;2024-01-11T01:42:42;-1.30;54.10
45044;DHT22;30784;48.490;9.688;2024-01-11T01:45:09;-1.30;54.00
45044;DHT22;30784;48.490;9.688;2024-01-11T01:47:35;-1.30;54.00
45044;DHT22;30784;48.490;9.688;2024-01-11T01:50:01;-1.30;53.90
45044;DHT22;30784;48.490;9.688;2024-01-11T01:52:27;-1.30;53.90
45044;DHT22;30784;48.490;9.688;2024-01-11T01:54:53;-1.30;53.90
45044;DHT22;30784;48.490;9.688;2024-01-11T01:57:20;-1.30;53.90
45044;DHT22;30784;48.490;9.688;2024-01-11T01:59:48;-1.30;53.90
45044;DHT22;30784;48.490;9.688;2024-01-11T02:02:15;-1.30;53.90
45044;DHT22;30784;48.490;9.688;2024-01-11T02:04:41;-1.30;53.90
45044;DHT22;30784;48.490;9.688;2024-01-11T02:07:06;-1.30;53.90
45044;DHT22;30784;48.490;9.688;2024-01-11T02:09:33;-1.30;53.90
45044;DHT22;30784;48.490;9.688;2024-01-11T02:11:59;-1.30;53.90
45044;DHT22;30784;48.490;9.688;2024-01-11T02:14:26;-1.30;53.80
45044;DHT22;30784;48.490;9.688;2024-01-11T02:16:52;-1.30;53.80
45044;DHT22;30784;48.490;9.688;2024-01-11T02:19:19;-1.30;53.80
45044;DHT22;30784;48.490;9.688;2024-01-11T02:21:46;-1.30;53.80
45044;DHT22;30784;48.490;9.688;2024-01-11T02:24:14;-1.30;53.80
45044;DHT22;30784;48.490;9.688;2024-01-11T02:26:59;-1.30;53.80
45044;DHT22;30784;48.490;9.688;2024-01-11T02:29:25;-1.30;53.80
45044;DHT22;30784;48.490;9.688;2024-01-11T02:31:51;-1.30;53.80
45044;DHT22;30784;48.490;9.688;2024-01-11T02:34:17;-1.30;53.80
45044;DHT22;30784;48.490;9.688;2024-01-11T02:36:42;-1.30;53.70
45044;DHT22;30784;48.490;9.688;2024-01-11T02:39:09;-1.40;53.60
45044;DHT22;30784;48.490;9.688;2024-01-11T02:41:37;-1.40;53.60
45044;DHT22;30784;48.490;9.688;2024-01-11T02:44:02;-1.40;53.60
45044;DHT22;30784;48.490;9.688;2024-01-11T02:46:28;-1.40;53.50
45044;DHT22;30784;48.490;9.688;2024-01-11T02:48:54;-1.40;53.70
45044;DHT22;30784;48.490;9.688;2024-01-11T02:51:19;-1.40;53.80
45044;DHT22;30784;48.490;9.688;2024-01-11T02:53:45;-1.40;53.80
45044;DHT22;30784;48.490;9.688;2024-01-11T02:56:10;-1.40;53.90
45044;DHT22;30784;48.490;9.688;2024-01-11T02:58:36;-1.40;54.00
45044;DHT22;30784;48.490;9.688;2024-01-11T03:01:01;-1.40;54.00
45044;DHT22;30784;48.490;9.688;2024-01-11T03:03:27;-1.40;54.00
45044;DHT22;30784;48.490;9.688;2024-01-11T03:05:52;-1.40;54.00
45044;DHT22;30784;48.490;9.688;2024-01-11T03:08:18;-1.50;54.00
45044;DHT22;30784;48.490;9.688;2024-01-11T03:10:43;-1.40;54.00
45044;DHT22;30784;48.490;9.688;2024-01-11T03:13:09;-1.40;54.00
45044;DHT22;30784;48.490;9.688;2024-01-11T03:15:34;-1.40;54.00
45044;DHT22;30784;48.490;9.688;2024-01-11T03:18:00;-1.40;54.00
45044;DHT22;30784;48.490;9.688;2024-01-11T03:20:25;-1.40;54.00
45044;DHT22;30784;48.490;9.688;2024-01-11T03:22:51;-1.40;53.90
45044;DHT22;30784;48.490;9.688;2024-01-11T03:25:18;-1.40;53.90
45044;DHT22;30784;48.490;9.688;2024-01-11T03:27:43;-1.40;53.80
45044;DHT22;30784;48.490;9.688;2024-01-11T03:30:09;-1.40;53.80
45044;DHT22;30784;48.490;9.688;2024-01-11T03:32:35;-1.40;53.80
45044;DHT22;30784;48.490;9.688;2024-01-11T03:35:00;-1.40;53.70
45044;DHT22;30784;48.490;9.688;2024-01-11T03:37:26;-1.40;53.70
45044;DHT22;30784;48.490;9.688;2024-01-11T03:39:51;-1.50;53.60
45044;DHT22;30784;48.490;9.688;2024-01-11T03:42:17;-1.50;53.60
45044;DHT22;30784;48.490;9.688;2024-01-11T03:44:42;-1.50;54.10
45044;DHT22;30784;48.490;9.688;2024-01-11T03:47:08;-1.50;53.60
45044;DHT22;30784;48.490;9.688;2024-01-11T03:49:33;-1.50;53.60
45044;DHT22;30784;48.490;9.688;2024-01-11T03:51:59;-1.50;53.60
45044;DHT22;30784;48.490;9.688;2024-01-11T03:54:24;-1.50;53.60
45044;DHT22;30784;48.490;9.688;2024-01-11T03:56:50;-1.50;53.60
45044;DHT22;30784;48.490;9.688;2024-01-11T03:59:15;-1.60;53.50
45044;DHT22;30784;48.490;9.688;2024-01-11T04:01:42;-1.60;53.60
45044;DHT22;30784;48.490;9.688;2024-01-11T04:04:07;-1.60;53.60
45044;DHT22;30784;48.490;9.688;2024-01-11T04:06:33;-1.60;53.60
45044;DHT22;30784;48.490;9.688;2024-01-11T04:08:58;-1.60;53.60
45044;DHT22;30784;48.490;9.688;2024-01-11T04:11:27;-1.60;54.20
45044;DHT22;30784;48.490;9.688;2024-01-11T04:13:53;-1.60;53.70
45044;DHT22;30784;48.490;9.688;2024-01-11T04:16:19;-1.60;53.80
45044;DHT22;30784;48.490;9.688;2024-01-11T04:18:45;-1.60;53.80
45044;DHT22;30784;48.490;9.688;2024-01-11T04:21:24;-1.70;53.80
45044;DHT22;30784;48.490;9.688;2024-01-11T04:23:50;-1.70;53.90
45044;DHT22;30784;48.490;9.688;2024-01-11T04:26:16;-1.70;53.90
45044;DHT22;30784;48.490;9.688;2024-01-11T04:28:44;-1.70;53.90
45044;DHT22;30784;48.490;9.688;2024-01-11T04:31:10;-1.70;54.00
45044;DHT22;30784;48.490;9.688;2024-01-11T04:33:35;-1.80;54.00
45044;DHT22;30784;48.490;9.688;2024-01-11T04:36:01;-1.70;54.10
45044;DHT22;30784;48.490;9.688;2024-01-11T04:38:26;-1.80;54.10
45044;DHT22;30784;48.490;9.688;2024-01-11T04:40:52;-1.80;54.20
45044;DHT22;30784;48.490;9.688;2024-01-11T04:43:17;-1.80;54.30
45044;DHT22;30784;48.490;9.688;2024-01-11T04:45:43;-1.80;54.30
45044;DHT22;30784;48.490;9.688;2024-01-11T04:48:08;-1.80;54.30
45044;DHT22;30784;48.490;9.688;2024-01-11T04:50:34;-1.80;54.30
45044;DHT22;30784;48.490;9.688;2024-01-11T04:52:59;-1.80;54.30
45044;DHT22;30784;48.490;9.688;2024-01-11T04:55:25;-1.80;54.30
45044;DHT22;30784;48.490;9.688;2024-01-11T04:57:50;-1.80;54.30
45044;DHT22;30784;48.490;9.688;2024-01-11T05:00:16;-1.80;54.40
45044;DHT22;30784;48.490;9.688;2024-01-11T05:02:42;-1.70;54.40
45044;DHT22;30784;48.490;9.688;2024-01-11T05:05:07;-1.70;54.40
45044;DHT22;30784;48.490;9.688;2024-01-11T05:07:33;-1.70;54.30
45044;DHT22;30784;48.490;9.688;2024-01-11T05:10:00;-1.80;54.30
45044;DHT22;30784;48.490;9.688;2024-01-11T05:12:25;-1.80;54.30
45044;DHT22;30784;48.490;9.688;2024-01-11T05:14:51;-1.70;54.40
45044;DHT22;30784;48.490;9.688;2024-01-11T05:17:16;-1.80;54.30
45044;DHT22;30784;48.490;9.688;2024-01-11T05:19:42;-1.80;54.40
45044;DHT22;30784;48.490;9.688;2024-01-11T05:22:07;-1.70;54.50
45044;DHT22;30784;48.490;9.688;2024-01-11T05:24:33;-1.80;54.40
45044;DHT22;30784;48.490;9.688;2024-01-11T05:26:58;-1.70;54.40
45044;DHT22;30784;48.490;9.688;2024-01-11T05:29:24;-1.70;54.40
45044;DHT22;30784;48.490;9.688;2024-01-11T05:31:50;-1.70;54.40
45044;DHT22;30784;48.490;9.688;2024-01-11T05:34:15;-1.70;54.40
45044;DHT22;30784;48.490;9.688;2024-01-11T05:36:41;-1.70;54.40
45044;DHT22;30784;48.490;9.688;2024-01-11T05:39:06;-1.70;54.30
45044;DHT22;30784;48.490;9.688;2024-01-11T05:41:32;-1.70;54.30
45044;DHT22;30784;48.490;9.688;2024-01-11T05:43:58;-1.70;54.30
45044;DHT22;30784;48.490;9.688;2024-01-11T05:46:23;-1.70;54.30
45044;DHT22;30784;48.490;9.688;2024-01-11T05:48:49;-1.70;54.30
45044;DHT22;30784;48.490;9.688;2024-01-11T05:51:15;-1.70;54.30
45044;DHT22;30784;48.490;9.688;2024-01-11T05:53:40;-1.70;54.30
45044;DHT22;30784;48.490;9.688;2024-01-11T05:56:09;-1.70;54.30
45044;DHT22;30784;48.490;9.688;2024-01-11T05:58:35;-1.70;54.30
45044;DHT22;30784;48.490;9.688;2024-01-11T06:01:03;-1.70;54.30
45044;DHT22;30784;48.490;9.688;2024-01-11T06:03:28;-1.70;54.30
45044;DHT22;30784;48.490;9.688;2024-01-11T06:05:55;-1.70;54.40
45044;DHT22;30784;48.490;9.688;2024-01-11T06:08:20;-1.70;54.40
45044;DHT22;30784;48.490;9.688;2024-01-11T06:10:46;-1.70;54.50
45044;DHT22;30784;48.490;9.688;2024-01-11T06:13:11;-1.70;54.50
45044;DHT22;30784;48.490;9.688;2024-01-11T06:15:37;-1.70;54.50
45044;DHT22;30784;48.490;9.688;2024-01-11T06:18:03;-1.70;54.50
45044;DHT22;30784;48.490;9.688;2024-01-11T06:20:30;-1.70;54.50
45044;DHT22;30784;48.490;9.688;2024-01-11T06:22:55;-1.70;54.50
45044;DHT22;30784;48.490;9.688;2024-01-11T06:25:21;-1.70;54.60
45044;DHT22;30784;48.490;9.688;2024-01-11T06:27:47;-1.70;54.50
45044;DHT22;30784;48.490;9.688;2024-01-11T06:30:12;-1.70;54.50
45044;DHT22;30784;48.490;9.688;2024-01-11T06:32:38;-1.70;54.60
45044;DHT22;30784;48.490;9.688;2024-01-11T06:35:04;-1.70;54.60
45044;DHT22;30784;48.490;9.688;2024-01-11T06:37:30;-1.70;54.60
45044;DHT22;30784;48.490;9.688;2024-01-11T06:39:56;-1.70;54.60
45044;DHT22;30784;48.490;9.688;2024-01-11T06:42:22;-1.70;54.60
45044;DHT22;30784;48.490;9.688;2024-01-11T06:44:47;-1.70;54.60
45044;DHT22;30784;48.490;9.688;2024-01-11T06:47:13;-1.70;54.50
45044;DHT22;30784;48.490;9.688;2024-01-11T06:49:41;-1.70;54.50
45044;DHT22;30784;48.490;9.688;2024-01-11T06:52:07;-1.70;54.50
45044;DHT22;30784;48.490;9.688;2024-01-11T06:54:32;-1.70;54.40
45044;DHT22;30784;48.490;9.688;2024-01-11T06:56:58;-1.70;54.40
45044;DHT22;30784;48.490;9.688;2024-01-11T06:59:24;-1.70;54.50
45044;DHT22;30784;48.490;9.688;2024-01-11T07:01:49;-1.70;54.50
45044;DHT22;30784;48.490;9.688;2024-01-11T07:04:15;-1.70;54.60
45044;DHT22;30784;48.490;9.688;2024-01-11T07:06:40;-1.70;54.50
45044;DHT22;30784;48.490;9.688;2024-01-11T07:09:06;-1.70;54.60
45044;DHT22;30784;48.490;9.688;2024-01-11T07:11:32;-1.70;54.60
45044;DHT22;30784;48.490;9.688;2024-01-11T07:13:58;-1.70;54.60
45044;DHT22;30784;48.490;9.688;2024-01-11T07:16:23;-1.70;54.60
45044;DHT22;30784;48.490;9.688;2024-01-11T07:18:49;-1.70;54.60
45044;DHT22;30784;48.490;9.688;2024-01-11T07:21:23;-1.70;54.70
45044;DHT22;30784;48.490;9.688;2024-01-11T07:23:59;-1.70;54.70
45044;DHT22;30784;48.490;9.688;2024-01-11T07:26:25;-1.70;54.70
45044;DHT22;30784;48.490;9.688;2024-01-11T07:28:51;-1.70;54.80
45044;DHT22;30784;48.490;9.688;2024-01-11T07:31:17;-1.70;54.90
45044;DHT22;30784;48.490;9.688;2024-01-11T07:33:43;-1.70;54.90
45044;DHT22;30784;48.490;9.688;2024-01-11T07:36:09;-1.70;54.90
45044;DHT22;30784;48.490;9.688;2024-01-11T07:38:34;-1.70;55.00
45044;DHT22;30784;48.490;9.688;2024-01-11T07:41:00;-1.70;55.00
45044;DHT22;30784;48.490;9.688;2024-01-11T07:43:27;-1.70;55.10
45044;DHT22;30784;48.490;9.688;2024-01-11T07:45:54;-1.70;55.30
45044;DHT22;30784;48.490;9.688;2024-01-11T07:48:22;-1.60;55.40
45044;DHT22;30784;48.490;9.688;2024-01-11T07:50:48;-1.60;55.50
45044;DHT22;30784;48.490;9.688;2024-01-11T07:53:14;-1.60;55.80
45044;DHT22;30784;48.490;9.688;2024-01-11T07:55:40;-1.50;56.00
45044;DHT22;30784;48.490;9.688;2024-01-11T07:58:05;-1.50;56.10
45044;DHT22;30784;48.490;9.688;2024-01-11T08:00:31;-1.40;56.30
45044;DHT22;30784;48.490;9.688;2024-01-11T08:02:57;-1.30;56.40
45044;DHT22;30784;48.490;9.688;2024-01-11T08:05:22;-1.20;56.30
45044;DHT22;30784;48.490;9.688;2024-01-11T08:07:48;-1.20;56.30
45044;DHT22;30784;48.490;9.688;2024-01-11T08:10:13;-1.10;56.50
45044;DHT22;30784;48.490;9.688;2024-01-11T08:12:39;-1.00;56.60
45044;DHT22;30784;48.490;9.688;2024-01-11T08:15:04;-0.90;56.60
45044;DHT22;30784;48.490;9.688;2024-01-11T08:17:30;-0.80;56.70
45044;DHT22;30784;48.490;9.688;2024-01-11T08:19:56;-0.80;56.60
45044;DHT22;30784;48.490;9.688;2024-01-11T08:22:22;-0.70;56.50
45044;DHT22;30784;48.490;9.688;2024-01-11T08:24:48;-0.60;56.50
45044;DHT22;30784;48.490;9.688;2024-01-11T08:27:13;-0.50;56.50
45044;DHT22;30784;48.490;9.688;2024-01-11T08:29:42;-0.40;56.60
45044;DHT22;30784;48.490;9.688;2024-01-11T08:32:08;-0.30;56.70
45044;DHT22;30784;48.490;9.688;2024-01-11T08:34:34;-0.20;56.70
45044;DHT22;30784;48.490;9.688;2024-01-11T08:36:59;-0.10;56.60
45044;DHT22;30784;48.490;9.688;2024-01-11T08:39:25;0.00;56.60
45044;DHT22;30784;48.490;9.688;2024-01-11T08:41:50;0.10;56.70
45044;DHT22;30784;48.490;9.688;2024-01-11T08:44:17;0.20;56.70
45044;DHT22;30784;48.490;9.688;2024-01-11T08:46:43;0.30;56.60
45044;DHT22;30784;48.490;9.688;2024-01-11T08:49:09;0.40;56.50
45044;DHT22;30784;48.490;9.688;2024-01-11T08:51:35;0.50;56.60
45044;DHT22;30784;48.490;9.688;2024-01-11T08:54:01;0.50;56.50
45044;DHT22;30784;48.490;9.688;2024-01-11T08:56:26;0.60;56.50
45044;DHT22;30784;48.490;9.688;2024-01-11T08:58:53;0.80;56.50
45044;DHT22;30784;48.490;9.688;2024-01-11T09:01:19;0.90;56.30
45044;DHT22;30784;48.490;9.688;2024-01-11T09:03:44;1.00;56.20
45044;DHT22;30784;48.490;9.688;2024-01-11T09:06:10;1.10;56.30
45044;DHT22;30784;48.490;9.688;2024-01-11T09:08:36;1.20;56.20
45044;DHT22;30784;48.490;9.688;2024-01-11T09:11:02;1.30;56.10
45044;DHT22;30784;48.490;9.688;2024-01-11T09:13:28;1.30;55.90
45044;DHT22;30784;48.490;9.688;2024-01-11T09:15:54;1.40;55.70
45044;DHT22;30784;48.490;9.688;2024-01-11T09:18:20;1.50;55.60
45044;DHT22;30784;48.490;9.688;2024-01-11T09:20:46;1.60;55.70
45044;DHT22;30784;48.490;9.688;2024-01-11T09:23:12;1.70;55.60
45044;DHT22;30784;48.490;9.688;2024-01-11T09:25:38;1.80;55.60
45044;DHT22;30784;48.490;9.688;2024-01-11T09:28:04;1.90;55.60
45044;DHT22;30784;48.490;9.688;2024-01-11T09:30:29;2.00;55.40
45044;DHT22;30784;48.490;9.688;2024-01-11T09:32:55;2.10;55.40
45044;DHT22;30784;48.490;9.688;2024-01-11T09:35:22;2.10;55.20
45044;DHT22;30784;48.490;9.688;2024-01-11T09:37:48;2.30;55.30
45044;DHT22;30784;48.490;9.688;2024-01-11T09:40:14;2.40;55.30
45044;DHT22;30784;48.490;9.688;2024-01-11T09:42:40;2.50;55.30
45044;DHT22;30784;48.490;9.688;2024-01-11T09:45:08;2.60;55.10
45044;DHT22;30784;48.490;9.688;2024-01-11T09:47:36;2.70;55.10
45044;DHT22;30784;48.490;9.688;2024-01-11T09:50:03;2.80;54.80
45044;DHT22;30784;48.490;9.688;2024-01-11T09:52:29;2.90;54.10
45044;DHT22;30784;48.490;9.688;2024-01-11T09:55:00;3.00;54.10
45044;DHT22;30784;48.490;9.688;2024-01-11T09:57:30;3.10;53.80
45044;DHT22;30784;48.490;9.688;2024-01-11T09:59:57;3.10;53.70
45044;DHT22;30784;48.490;9.688;2024-01-11T10:02:25;3.20;54.20
45044;DHT22;30784;48.490;9.688;2024-01-11T10:04:52;3.30;53.80
45044;DHT22;30784;48.490;9.688;2024-01-11T10:07:22;3.30;54.00
45044;DHT22;30784;48.490;9.688;2024-01-11T10:09:47;3.50;53.50
45044;DHT22;30784;48.490;9.688;2024-01-11T10:12:13;3.60;54.60
45044;DHT22;30784;48.490;9.688;2024-01-11T10:14:39;3.70;53.40
45044;DHT22;30784;48.490;9.688;2024-01-11T10:17:05;3.80;53.30
45044;DHT22;30784;48.490;9.688;2024-01-11T10:19:31;3.90;52.90
45044;DHT22;30784;48.490;9.688;2024-01-11T10:21:57;3.90;52.60
45044;DHT22;30784;48.490;9.688;2024-01-11T10:24:24;3.90;52.60
45044;DHT22;30784;48.490;9.688;2024-01-11T10:26:58;4.00;52.40
45044;DHT22;30784;48.490;9.688;2024-01-11T10:29:30;4.00;52.20
45044;DHT22;30784;48.490;9.688;2024-01-11T10:31:56;4.10;52.10
45044;DHT22;30784;48.490;9.688;2024-01-11T10:34:23;4.10;51.90
45044;DHT22;30784;48.490;9.688;2024-01-11T10:36:50;4.10;52.00
45044;DHT22;30784;48.490;9.688;2024-01-11T10:39:17;4.20;51.90
45044;DHT22;30784;48.490;9.688;2024-01-11T10:41:47;4.20;51.10
45044;DHT22;30784;48.490;9.688;2024-01-11T10:44:19;4.30;51.10
45044;DHT22;30784;48.490;9.688;2024-01-11T10:46:48;4.30;51.30
45044;DHT22;30784;48.490;9.688;2024-01-11T10:49:18;4.30;51.00
45044;DHT22;30784;48.490;9.688;2024-01-11T10:51:49;4.30;50.80
45044;DHT22;30784;48.490;9.688;2024-01-11T10:54:19;4.30;50.80
45044;DHT22;30784;48.490;9.688;2024-01-11T10:56:46;4.30;51.20
45044;DHT22;30784;48.490;9.688;2024-01-11T10:59:13;4.40;50.80
45044;DHT22;30784;48.490;9.688;2024-01-11T11:01:39;4.40;50.70
45044;DHT22;30784;48.490;9.688;2024-01-11T11:04:06;4.50;51.20
45044;DHT22;30784;48.490;9.688;2024-01-11T11:06:34;4.50;51.10
45044;DHT22;30784;48.490;9.688;2024-01-11T11:09:00;4.60;51.30
45044;DHT22;30784;48.490;9.688;2024-01-11T11:11:30;4.60;51.10
45044;DHT22;30784;48.490;9.688;2024-01-11T11:14:00;4.80;51.00
45044;DHT22;30784;48.490;9.688;2024-01-11T11:16:26;4.80;50.40
45044;DHT22;30784;48.490;9.688;2024-01-11T11:18:53;4.90;50.60
45044;DHT22;30784;48.490;9.688;2024-01-11T11:21:20;4.90;50.80
45044;DHT22;30784;48.490;9.688;2024-01-11T11:23:46;5.00;50.70
45044;DHT22;30784;48.490;9.688;2024-01-11T11:26:16;5.10;50.60
45044;DHT22;30784;48.490;9.688;2024-01-11T11:28:42;5.20;50.60
45044;DHT22;30784;48.490;9.688;2024-01-11T11:31:10;5.30;51.40
45044;DHT22;30784;48.490;9.688;2024-01-11T11:33:37;5.40;49.80
45044;DHT22;30784;48.490;9.688;2024-01-11T11:36:03;5.40;49.90
45044;DHT22;30784;48.490;9.688;2024-01-11T11:38:30;5.50;49.80
45044;DHT22;30784;48.490;9.688;2024-01-11T11:41:00;5.60;49.90
45044;DHT22;30784;48.490;9.688;2024-01-11T11:43:27;5.60;49.90
45044;DHT22;30784;48.490;9.688;2024-01-11T11:45:54;5.70;50.20
45044;DHT22;30784;48.490;9.688;2024-01-11T11:53:36;6.10;50.30
45044;DHT22;30784;48.490;9.688;2024-01-11T11:56:02;6.20;49.70
45044;DHT22;30784;48.490;9.688;2024-01-11T11:58:29;6.30;49.80
45044;DHT22;30784;48.490;9.688;2024-01-11T12:00:55;6.40;49.30
45044;DHT22;30784;48.490;9.688;2024-01-11T12:03:42;6.50;49.00
45044;DHT22;30784;48.490;9.688;2024-01-11T12:06:14;6.60;49.30
45044;DHT22;30784;48.490;9.688;2024-01-11T12:08:45;6.70;48.80
45044;DHT22;30784;48.490;9.688;2024-01-11T12:11:21;6.80;48.70
45044;DHT22;30784;48.490;9.688;2024-01-11T12:13:48;6.80;48.90
45044;DHT22;30784;48.490;9.688;2024-01-11T12:16:14;6.90;48.80
45044;DHT22;30784;48.490;9.688;2024-01-11T12:18:40;7.00;48.60
45044;DHT22;30784;48.490;9.688;2024-01-11T12:21:06;7.10;48.40
45044;DHT22;30784;48.490;9.688;2024-01-11T12:23:33;7.10;48.20
45044;DHT22;30784;48.490;9.688;2024-01-11T12:26:03;7.20;47.80
45044;DHT22;30784;48.490;9.688;2024-01-11T12:28:33;7.30;47.60
45044;DHT22;30784;48.490;9.688;2024-01-11T12:30:59;7.30;47.40
45044;DHT22;30784;48.490;9.688;2024-01-11T12:33:26;7.30;47.00
45044;DHT22;30784;48.490;9.688;2024-01-11T12:35:52;7.40;47.30
45044;DHT22;30784;48.490;9.688;2024-01-11T12:38:17;7.40;46.90
45044;DHT22;30784;48.490;9.688;2024-01-11T12:40:46;7.40;46.70
45044;DHT22;30784;48.490;9.688;2024-01-11T12:43:12;7.40;46.40
45044;DHT22;30784;48.490;9.688;2024-01-11T12:45:38;7.40;46.60
45044;DHT22;30784;48.490;9.688;2024-01-11T12:48:07;7.40;46.50
45044;DHT22;30784;48.490;9.688;2024-01-11T12:50:34;7.40;46.50
45044;DHT22;30784;48.490;9.688;2024-01-11T12:53:15;7.50;46.70
45044;DHT22;30784;48.490;9.688;2024-01-11T12:55:47;7.50;46.70
45044;DHT22;30784;48.490;9.688;2024-01-11T12:58:13;7.50;46.50
45044;DHT22;30784;48.490;9.688;2024-01-11T13:00:39;7.50;46.30
45044;DHT22;30784;48.490;9.688;2024-01-11T13:03:05;7.50;46.10
45044;DHT22;30784;48.490;9.688;2024-01-11T13:05:32;7.60;45.80
45044;DHT22;30784;48.490;9.688;2024-01-11T13:08:08;7.60;45.80
45044;DHT22;30784;48.490;9.688;2024-01-11T13:10:34;7.60;46.50
45044;DHT22;30784;48.490;9.688;2024-01-11T13:13:01;7.60;45.70
45044;DHT22;30784;48.490;9.688;2024-01-11T13:15:27;7.60;45.50
45044;DHT22;30784;48.490;9.688;2024-01-11T13:17:55;7.60;45.80
45044;DHT22;30784;48.490;9.688;2024-01-11T13:20:21;7.60;45.90
45044;DHT22;30784;48.490;9.688;2024-01-11T13:22:46;7.60;45.50
45044;DHT22;30784;48.490;9.688;2024-01-11T13:25:12;7.60;45.50
45044;DHT22;30784;48.490;9.688;2024-01-11T13:27:38;7.60;45.70
45044;DHT22;30784;48.490;9.688;2024-01-11T13:30:05;7.60;45.50
45044;DHT22;30784;48.490;9.688;2024-01-11T13:32:31;7.60;45.20
45044;DHT22;30784;48.490;9.688;2024-01-11T13:34:56;7.60;45.30
45044;DHT22;30784;48.490;9.688;2024-01-11T13:37:22;7.60;45.30
45044;DHT22;30784;48.490;9.688;2024-01-11T13:39:48;7.60;45.20
45044;DHT22;30784;48.490;9.688;2024-01-11T13:42:13;7.60;44.90
45044;DHT22;30784;48.490;9.688;2024-01-11T13:44:39;7.60;45.10
45044;DHT22;30784;48.490;9.688;2024-01-11T13:47:05;7.60;44.90
45044;DHT22;30784;48.490;9.688;2024-01-11T13:49:30;7.60;44.40
45044;DHT22;30784;48.490;9.688;2024-01-11T13:51:56;7.60;44.70
45044;DHT22;30784;48.490;9.688;2024-01-11T13:54:22;7.50;44.40
45044;DHT22;30784;48.490;9.688;2024-01-11T13:56:48;7.50;44.30
45044;DHT22;30784;48.490;9.688;2024-01-11T13:59:14;7.50;44.60
45044;DHT22;30784;48.490;9.688;2024-01-11T14:01:39;7.40;44.60
45044;DHT22;30784;48.490;9.688;2024-01-11T14:04:05;7.40;44.50
45044;DHT22;30784;48.490;9.688;2024-01-11T14:06:30;7.40;44.60
45044;DHT22;30784;48.490;9.688;2024-01-11T14:08:56;7.40;44.60
45044;DHT22;30784;48.490;9.688;2024-01-11T14:11:22;7.30;44.60
45044;DHT22;30784;48.490;9.688;2024-01-11T14:13:47;7.30;44.40
45044;DHT22;30784;48.490;9.688;2024-01-11T14:16:13;7.20;44.30
45044;DHT22;30784;48.490;9.688;2024-01-11T14:18:41;7.20;44.70
45044;DHT22;30784;48.490;9.688;2024-01-11T14:21:06;7.20;44.50
45044;DHT22;30784;48.490;9.688;2024-01-11T14:23:32;7.20;44.60
45044;DHT22;30784;48.490;9.688;2024-01-11T14:25:57;7.10;44.60
45044;DHT22;30784;48.490;9.688;2024-01-11T14:28:23;7.10;44.70
45044;DHT22;30784;48.490;9.688;2024-01-11T14:30:48;7.10;44.70
45044;DHT22;30784;48.490;9.688;2024-01-11T14:33:14;7.10;44.60
45044;DHT22;30784;48.490;9.688;2024-01-11T14:35:39;7.00;44.60
45044;DHT22;30784;48.490;9.688;2024-01-11T14:38:05;7.00;44.70
45044;DHT22;30784;48.490;9.688;2024-01-11T14:40:31;7.00;44.80
45044;DHT22;30784;48.490;9.688;2024-01-11T14:42:56;7.00;44.70
45044;DHT22;30784;48.490;9.688;2024-01-11T14:45:22;6.90;44.50
45044;DHT22;30784;48.490;9.688;2024-01-11T14:47:47;6.80;44.60
45044;DHT22;30784;48.490;9.688;2024-01-11T14:50:13;6.80;44.60
45044;DHT22;30784;48.490;9.688;2024-01-11T14:52:38;6.80;44.70
45044;DHT22;30784;48.490;9.688;2024-01-11T14:55:05;6.70;44.50
45044;DHT22;30784;48.490;9.688;2024-01-11T14:57:31;6.60;44.30
45044;DHT22;30784;48.490;9.688;2024-01-11T14:59:56;6.60;44.40
45044;DHT22;30784;48.490;9.688;2024-01-11T15:02:22;6.50;44.40
45044;DHT22;30784;48.490;9.688;2024-01-11T15:04:48;6.50;44.50
45044;DHT22;30784;48.490;9.688;2024-01-11T15:07:14;6.40;44.60
45044;DHT22;30784;48.490;9.688;2024-01-11T15:09:40;6.40;44.60
45044;DHT22;30784;48.490;9.688;2024-01-11T15:12:05;6.30;44.60
45044;DHT22;30784;48.490;9.688;2024-01-11T15:14:31;6.30;44.50
45044;DHT22;30784;48.490;9.688;2024-01-11T15:16:56;6.20;44.50
45044;DHT22;30784;48.490;9.688;2024-01-11T15:19:22;6.20;44.70
45044;DHT22;30784;48.490;9.688;2024-01-11T15:21:48;6.10;44.60
45044;DHT22;30784;48.490;9.688;2024-01-11T15:24:14;6.00;44.50
45044;DHT22;30784;48.490;9.688;2024-01-11T15:26:39;6.00;45.10
45044;DHT22;30784;48.490;9.688;2024-01-11T15:29:05;5.80;44.50
45044;DHT22;30784;48.490;9.688;2024-01-11T15:31:31;5.80;44.60
45044;DHT22;30784;48.490;9.688;2024-01-11T15:33:56;5.70;44.70
45044;DHT22;30784;48.490;9.688;2024-01-11T15:36:23;5.60;44.70